WXM80 ListenWXM80 Stop

You find our weather info also at:

UK Metoffice

WeatherCloud

Weather Underground

Northeastern Weather Network

AWEKAS

Citizen Weather Observer Program (CWOP)

HAMweather, WeatherForYou, PWS Weather


Weather Underground History page Text

Daily Summary for June 17, 2017 Units:  Metric    English   Both
« Previous Day
Next Day »
Daily Weekly Monthly Yearly Custom
  High: Low: Average:
Temperature: 22.6 °C 17.7 °C 19.7 °C
Dew Point: 21.9 °C 17.3 °C 19.1 °C
Humidity: 98 % 89 % 96 %
Wind Speed: 6.4 km/h 0 km/h 0.6 km/h
Wind Gust: 14.8 km/h - -
Wind:- - East
Pressure: 1013.4 hPa 1011.4 hPa -
Precipitation: 9.65 mm    
Historical Graphs
 
 
Tabular Data for June 17, 2017
Time Temperature Dew Point Pressure Wind Wind Speed Wind Gust Humidity Rainfall Rate (Hourly)
00:01 17.8 °C 17.3 °C 1012.8 hPa ENE 2.1 km/h 7.4 km/h 97 % 0.25 mm
00:07 17.8 °C 17.3 °C 1012.8 hPa NE 1.1 km/h 5.6 km/h 97 % 0.25 mm
00:12 17.8 °C 17.3 °C 1012.4 hPa NE 1 km/h 5.6 km/h 97 % 0.25 mm
00:17 17.8 °C 17.3 °C 1012.4 hPa NE 0.5 km/h 3.7 km/h 97 % 0.25 mm
00:19 17.8 °C 17.3 °C 1012.4 hPa NE 1.1 km/h 3.7 km/h 97 % 0.25 mm
00:24 17.8 °C 17.3 °C 1012.4 hPa NE 1 km/h 5.6 km/h 97 % 0.25 mm
00:29 17.8 °C 17.4 °C 1012.4 hPa NE 0.6 km/h 3.7 km/h 98 % 0.25 mm
00:34 17.8 °C 17.4 °C 1012.4 hPa NE 1 km/h 3.2 km/h 98 % 0.25 mm
00:39 17.8 °C 17.4 °C 1012.4 hPa NNE 1.8 km/h 5.6 km/h 98 % 0.25 mm
00:44 17.8 °C 17.4 °C 1012.4 hPa NE 1 km/h 5.6 km/h 98 % 0 mm
00:50 17.8 °C 17.4 °C 1012.1 hPa Calm     98 % 0 mm
00:55 17.8 °C 17.4 °C 1012.1 hPa ENE 3.1 km/h 5.6 km/h 98 % 0 mm
01:00 17.8 °C 17.4 °C 1012.4 hPa ENE 1.8 km/h 5.6 km/h 98 % 0 mm
01:05 17.8 °C 17.5 °C 1012.1 hPa ENE 2.1 km/h 5.6 km/h 98 % 0 mm
01:10 17.8 °C 17.5 °C 1012.4 hPa ENE 2.7 km/h 5.6 km/h 98 % 0 mm
01:15 17.8 °C 17.5 °C 1012.4 hPa ENE 0.2 km/h 1.9 km/h 98 % 0 mm
01:20 17.8 °C 17.5 °C 1012.4 hPa Calm     98 % 0 mm
01:25 17.8 °C 17.5 °C 1012.4 hPa Calm     98 % 0 mm
01:30 17.8 °C 17.5 °C 1012.4 hPa Calm     98 % 0 mm
01:35 17.8 °C 17.5 °C 1012.1 hPa Calm     98 % 0 mm
01:40 17.8 °C 17.5 °C 1012.1 hPa Calm     98 % 0 mm
01:45 17.8 °C 17.5 °C 1012.1 hPa Calm     98 % 0 mm
01:50 17.8 °C 17.5 °C 1012.1 hPa Calm     98 % 0 mm
01:55 17.9 °C 17.6 °C 1012.1 hPa Calm     98 % 0 mm
02:00 17.9 °C 17.6 °C 1012.1 hPa Calm     98 % 0 mm
02:05 17.9 °C 17.6 °C 1012.1 hPa ENE 1.4 km/h 5.6 km/h 98 % 0 mm
02:10 17.9 °C 17.6 °C 1012.1 hPa NE 1 km/h 5.6 km/h 98 % 0 mm
02:15 17.9 °C 17.6 °C 1012.1 hPa NE 1 km/h 3.7 km/h 98 % 0 mm
02:20 17.9 °C 17.6 °C 1012.1 hPa NE 1.4 km/h 3.7 km/h 98 % 0 mm
02:25 17.9 °C 17.6 °C 1012.1 hPa NE 1.4 km/h 3.7 km/h 98 % 0 mm
02:28 17.9 °C 17.6 °C 1012.1 hPa NE 0.3 km/h 5.6 km/h 98 % 0 mm
02:33 17.9 °C 17.6 °C 1012.1 hPa NE 1.1 km/h 3.7 km/h 98 % 0 mm
02:38 17.8 °C 17.5 °C 1011.7 hPa NE 0.3 km/h 1.9 km/h 98 % 0 mm
02:43 17.8 °C 17.5 °C 1011.7 hPa NE 0.2 km/h 1.9 km/h 98 % 0 mm
02:48 17.8 °C 17.5 °C 1011.7 hPa Calm   1.9 km/h 98 % 0 mm
02:53 17.8 °C 17.4 °C 1011.7 hPa NE 1 km/h 3.7 km/h 98 % 0 mm
02:58 17.8 °C 17.4 °C 1011.7 hPa Calm     98 % 0 mm
03:03 17.8 °C 17.4 °C 1011.7 hPa Calm     98 % 0 mm
03:08 17.8 °C 17.4 °C 1011.7 hPa Calm     98 % 0 mm
03:13 17.7 °C 17.4 °C 1011.7 hPa Calm   3.7 km/h 98 % 0 mm
03:18 17.7 °C 17.4 °C 1011.7 hPa Calm     98 % 0 mm
03:23 17.7 °C 17.4 °C 1011.7 hPa Calm     98 % 0 mm
03:28 17.7 °C 17.3 °C 1012.1 hPa Calm     98 % 0 mm
03:33 17.7 °C 17.3 °C 1011.7 hPa Calm     98 % 0 mm
03:38 17.7 °C 17.3 °C 1011.7 hPa Calm     98 % 0 mm
03:43 17.7 °C 17.3 °C 1011.7 hPa Calm     98 % 0 mm
03:48 17.7 °C 17.3 °C 1011.7 hPa NE 1.4 km/h 3.7 km/h 98 % 0 mm
03:53 17.7 °C 17.3 °C 1011.7 hPa Calm   1.9 km/h 98 % 0 mm
03:58 17.7 °C 17.3 °C 1011.7 hPa NE 0.2 km/h 1.9 km/h 98 % 0 mm
04:03 17.7 °C 17.4 °C 1011.7 hPa Calm   1.9 km/h 98 % 0 mm
04:08 17.7 °C 17.4 °C 1011.7 hPa Calm     98 % 0 mm
04:13 17.7 °C 17.4 °C 1011.7 hPa Calm     98 % 0 mm
04:18 17.7 °C 17.4 °C 1011.7 hPa Calm     98 % 0 mm
04:23 17.7 °C 17.4 °C 1012.1 hPa Calm   3.7 km/h 98 % 0 mm
04:28 17.7 °C 17.3 °C 1012.1 hPa Calm     98 % 0 mm
04:33 17.7 °C 17.4 °C 1012.1 hPa Calm     98 % 0 mm
04:38 17.7 °C 17.4 °C 1012.1 hPa Calm   1.9 km/h 98 % 0 mm
04:43 17.7 °C 17.4 °C 1012.1 hPa North 1.4 km/h 5.6 km/h 98 % 0 mm
04:48 17.7 °C 17.4 °C 1012.1 hPa NNE 2.6 km/h 3.7 km/h 98 % 0 mm
04:53 17.8 °C 17.4 °C 1012.1 hPa NNE 2.1 km/h 5.6 km/h 98 % 0 mm
04:59 17.8 °C 17.4 °C 1011.7 hPa NNE 2.9 km/h 5.6 km/h 98 % 0 mm
05:04 17.8 °C 17.4 °C 1012.1 hPa NNE 1.9 km/h 5.6 km/h 98 % 0 mm
05:09 17.8 °C 17.4 °C 1011.7 hPa NE 0.3 km/h 5.6 km/h 98 % 0 mm
05:14 17.8 °C 17.5 °C 1012.1 hPa ENE 0.5 km/h 1.9 km/h 98 % 0 mm
05:19 17.8 °C 17.5 °C 1011.7 hPa ENE 3.1 km/h 5.6 km/h 98 % 0 mm
05:24 17.8 °C 17.5 °C 1011.7 hPa ENE 0.3 km/h 1.9 km/h 98 % 0 mm
05:29 17.8 °C 17.5 °C 1012.1 hPa ENE 2.1 km/h 5.6 km/h 98 % 0 mm
05:34 17.8 °C 17.5 °C 1012.1 hPa East 1.9 km/h 5.6 km/h 98 % 0 mm
05:39 17.8 °C 17.5 °C 1011.7 hPa East 0.3 km/h 1.9 km/h 98 % 0 mm
05:44 17.8 °C 17.4 °C 1011.7 hPa ENE 1.3 km/h 5.6 km/h 98 % 0 mm
05:49 17.8 °C 17.4 °C 1011.7 hPa ENE 0.2 km/h 1.9 km/h 98 % 0 mm
05:54 17.8 °C 17.4 °C 1011.7 hPa Calm     98 % 0 mm
06:00 17.8 °C 17.4 °C 1011.7 hPa Calm     98 % 0 mm
06:05 17.8 °C 17.4 °C 1012.1 hPa Calm   1.6 km/h 98 % 0 mm
06:10 17.8 °C 17.4 °C 1012.1 hPa Calm   3.7 km/h 98 % 0 mm
06:15 17.8 °C 17.4 °C 1011.7 hPa ENE 0.8 km/h 3.7 km/h 98 % 0 mm
06:20 17.8 °C 17.4 °C 1011.7 hPa Calm   1.6 km/h 98 % 0 mm
06:25 17.8 °C 17.4 °C 1012.1 hPa Calm     98 % 0 mm
06:30 17.8 °C 17.4 °C 1012.1 hPa Calm     98 % 0 mm
06:35 17.8 °C 17.4 °C 1012.1 hPa Calm     98 % 0 mm
06:40 17.8 °C 17.5 °C 1012.1 hPa Calm     98 % 0 mm
06:45 17.8 °C 17.5 °C 1012.1 hPa Calm     98 % 0 mm
06:50 17.9 °C 17.6 °C 1012.1 hPa ENE 1.3 km/h 4.8 km/h 98 % 0 mm
06:55 17.9 °C 17.6 °C 1012.4 hPa Calm     98 % 0 mm
07:00 17.9 °C 17.6 °C 1012.4 hPa Calm     98 % 0 mm
07:05 17.9 °C 17.6 °C 1012.1 hPa Calm     98 % 0 mm
07:10 18 °C 17.7 °C 1012.1 hPa ENE 0.8 km/h 3.2 km/h 98 % 0 mm
07:15 18.1 °C 17.7 °C 1012.1 hPa ENE 1 km/h 1.9 km/h 98 % 0 mm
07:20 18.1 °C 17.7 °C 1012.4 hPa Calm     98 % 0 mm
07:25 18.1 °C 17.7 °C 1012.4 hPa ENE 0.3 km/h 1.6 km/h 98 % 0 mm
07:30 18.1 °C 17.7 °C 1012.1 hPa Calm     98 % 0 mm
07:35 18.1 °C 17.8 °C 1012.4 hPa Calm     98 % 0 mm
07:40 18.2 °C 17.9 °C 1012.4 hPa Calm   1.9 km/h 98 % 0 mm
07:45 18.2 °C 17.9 °C 1012.1 hPa Calm     98 % 0 mm
07:51 18.3 °C 18 °C 1012.1 hPa Calm   3.2 km/h 98 % 0 mm
07:52 18.3 °C 18 °C 1012.1 hPa Calm   3.7 km/h 98 % 0 mm
07:57 18.4 °C 18.1 °C 1012.4 hPa NE 1.6 km/h 5.6 km/h 98 % 0 mm
08:02 18.4 °C 18.1 °C 1012.4 hPa NE 1 km/h 3.7 km/h 98 % 0 mm
08:07 18.4 °C 18.1 °C 1012.1 hPa Calm     98 % 0 mm
08:12 18.6 °C 18.2 °C 1012.1 hPa NE 0.2 km/h 1.9 km/h 98 % 0 mm
08:17 18.7 °C 18.3 °C 1012.1 hPa Calm     98 % 0 mm
08:22 18.7 °C 18.4 °C 1012.4 hPa ENE 0.6 km/h 1.9 km/h 98 % 0 mm
08:27 18.7 °C 18.4 °C 1012.4 hPa Calm     98 % 0 mm
08:32 18.7 °C 18.4 °C 1012.8 hPa NE 0.6 km/h 3.7 km/h 98 % 0 mm
08:37 18.7 °C 18.3 °C 1012.8 hPa NE 0.8 km/h 3.7 km/h 98 % 0 mm
08:42 18.7 °C 18.3 °C 1013.1 hPa NNE 4.5 km/h 5.6 km/h 98 % 0 mm
08:47 18.6 °C 18.3 °C 1013.1 hPa NNE 1.3 km/h 1.9 km/h 98 % 0 mm
08:52 18.6 °C 18.3 °C 1013.1 hPa NNE 0.2 km/h   98 % 0 mm
08:57 18.6 °C 18.3 °C 1013.1 hPa NE 0.6 km/h 1.9 km/h 98 % 0 mm
09:02 18.6 °C 18.3 °C 1013.1 hPa NNE 3.2 km/h 5.6 km/h 98 % 0 mm
09:08 18.6 °C 18.3 °C 1013.1 hPa Calm     98 % 0 mm
09:13 18.7 °C 18.3 °C 1013.4 hPa ENE 0.8 km/h 3.7 km/h 98 % 0 mm
09:18 18.6 °C 18.3 °C 1013.1 hPa ENE 0.2 km/h 1.9 km/h 98 % 0 mm
09:23 18.7 °C 18.3 °C 1013.1 hPa ENE 0.2 km/h 3.2 km/h 98 % 0 mm
09:28 18.7 °C 18.3 °C 1013.1 hPa Calm   3.7 km/h 98 % 0 mm
09:33 18.7 °C 18.3 °C 1013.1 hPa ENE 0.2 km/h 1.9 km/h 98 % 0 mm
09:38 18.7 °C 18.4 °C 1013.1 hPa Calm     98 % 0 mm
09:40 18.7 °C 18.4 °C 1013.1 hPa Calm     98 % 0 mm
09:45 18.8 °C 18.4 °C 1013.1 hPa Calm     98 % 0 mm
09:50 18.9 °C 18.6 °C 1013.1 hPa Calm     98 % 0 mm
09:55 19.1 °C 18.8 °C 1013.4 hPa SW 0.5 km/h 3.7 km/h 98 % 0 mm
10:00 19.3 °C 19 °C 1013.1 hPa Calm   1.9 km/h 98 % 0 mm
10:05 19.4 °C 19.1 °C 1013.4 hPa Calm   1.9 km/h 98 % 0 mm
10:10 19.4 °C 19.1 °C 1013.1 hPa ENE 0.6 km/h 3.7 km/h 98 % 0 mm
10:15 19.4 °C 19.1 °C 1013.1 hPa ENE 0.6 km/h 5.6 km/h 98 % 0 mm
10:20 19.3 °C 19 °C 1013.1 hPa SE 0.5 km/h 1.9 km/h 98 % 0 mm
10:25 19.4 °C 19.1 °C 1012.8 hPa Calm   1.9 km/h 98 % 0 mm
10:30 19.5 °C 19.2 °C 1012.8 hPa Calm   1.9 km/h 98 % 0 mm
10:35 19.6 °C 19.3 °C 1012.8 hPa SE 0.3 km/h 1.9 km/h 98 % 0 mm
10:40 19.7 °C 19.4 °C 1012.8 hPa Calm   3.2 km/h 98 % 0 mm
10:45 19.8 °C 19.4 °C 1012.8 hPa NE 1 km/h 3.7 km/h 98 % 0 mm
10:50 19.9 °C 19.6 °C 1012.8 hPa NE 1.8 km/h 5.6 km/h 98 % 0 mm
10:55 20.1 °C 19.6 °C 1012.8 hPa ENE 0.2 km/h 1.9 km/h 97 % 0 mm
11:00 20.2 °C 19.7 °C 1012.8 hPa NE 3.9 km/h 7.4 km/h 97 % 0 mm
11:05 20.3 °C 19.7 °C 1012.8 hPa NE 2.7 km/h 4.8 km/h 96 % 0 mm
11:10 20.5 °C 19.8 °C 1012.8 hPa NE 0.2 km/h 1.9 km/h 96 % 0 mm
11:15 20.6 °C 19.8 °C 1013.1 hPa NE 1 km/h 1.9 km/h 95 % 0 mm
11:20 20.8 °C 20 °C 1013.1 hPa Calm     95 % 0 mm
11:25 21 °C 20 °C 1012.8 hPa NE 1.1 km/h 3.2 km/h 94 % 0 mm
11:30 21.3 °C 20.1 °C 1012.8 hPa ENE 4 km/h 8 km/h 93 % 0 mm
11:35 21.3 °C 20 °C 1013.1 hPa Calm   1.9 km/h 92 % 0 mm
11:40 21.3 °C 19.8 °C 1012.8 hPa ENE 1.8 km/h 5.6 km/h 91 % 0 mm
11:46 21.3 °C 19.6 °C 1012.8 hPa NE 3.2 km/h 6.4 km/h 90 % 0 mm
11:51 21.3 °C 19.6 °C 1013.1 hPa Calm   4.8 km/h 90 % 0 mm
11:56 21.1 °C 19.2 °C 1012.8 hPa NE 1.6 km/h 4.8 km/h 89 % 0 mm
12:01 21.1 °C 19.3 °C 1012.8 hPa NE 2.7 km/h 3.7 km/h 90 % 0 mm
12:06 21.1 °C 19.6 °C 1012.8 hPa NNE 0.5 km/h 3.7 km/h 91 % 0 mm
12:11 21.1 °C 19.3 °C 1012.8 hPa NNE 3.4 km/h 5.6 km/h 90 % 0 mm
12:14 21.1 °C 19.3 °C 1012.8 hPa ENE 1.8 km/h 5.6 km/h 90 % 0 mm
12:19 20.9 °C 19.2 °C 1012.8 hPa NE 1.1 km/h 5.6 km/h 90 % 0 mm
12:24 20.9 °C 19.4 °C 1012.8 hPa Calm   3.7 km/h 91 % 0 mm
12:29 20.9 °C 19.4 °C 1012.8 hPa NE 0.5 km/h 1.9 km/h 91 % 0 mm
12:34 20.9 °C 19.2 °C 1012.8 hPa North 1.1 km/h 5.6 km/h 90 % 0 mm
12:39 20.8 °C 19.1 °C 1012.8 hPa NE 3.2 km/h 5.6 km/h 90 % 0 mm
12:44 20.7 °C 18.8 °C 1012.8 hPa NE 0.5 km/h 5.6 km/h 89 % 0 mm
12:49 20.7 °C 18.9 °C 1012.8 hPa NE 1 km/h 5.6 km/h 90 % 0 mm
12:54 20.6 °C 18.8 °C 1012.8 hPa Calm   1.9 km/h 90 % 0 mm
12:59 20.6 °C 19.1 °C 1012.8 hPa NE 0.2 km/h 1.9 km/h 91 % 0 mm
13:04 20.6 °C 19.1 °C 1012.8 hPa ENE 0.8 km/h 3.2 km/h 91 % 0 mm
13:09 20.5 °C 19 °C 1013.1 hPa Calm     91 % 0 mm
13:14 20.4 °C 18.9 °C 1013.1 hPa Calm   1.9 km/h 91 % 0 mm
13:19 20.4 °C 18.9 °C 1013.1 hPa Calm     91 % 0 mm
13:24 20.4 °C 19.1 °C 1013.1 hPa Calm     92 % 0.25 mm
13:29 20.3 °C 19 °C 1013.1 hPa Calm     92 % 0.51 mm
13:34 20.3 °C 18.9 °C 1012.8 hPa ENE 0.2 km/h 1.9 km/h 92 % 0.51 mm
13:39 20.2 °C 18.9 °C 1012.8 hPa Calm     92 % 0.76 mm
13:44 20.2 °C 19 °C 1012.8 hPa Calm     93 % 1.27 mm
13:49 20.2 °C 19 °C 1013.1 hPa Calm     93 % 1.52 mm
13:54 20.1 °C 18.9 °C 1012.8 hPa Calm     93 % 1.78 mm
13:59 20.1 °C 19.1 °C 1012.8 hPa Calm   1.9 km/h 94 % 2.03 mm
14:04 20.1 °C 19.1 °C 1012.8 hPa ENE 0.2 km/h 1.9 km/h 94 % 2.54 mm
14:09 20.1 °C 19.1 °C 1012.8 hPa ENE 0.3 km/h 1.9 km/h 94 % 3.3 mm
14:14 20 °C 19 °C 1012.8 hPa Calm     94 % 3.81 mm
14:19 19.9 °C 18.9 °C 1012.8 hPa Calm   1.9 km/h 94 % 4.32 mm
14:25 19.9 °C 18.9 °C 1012.8 hPa Calm   1.9 km/h 94 % 4.57 mm
14:30 19.9 °C 18.9 °C 1012.8 hPa ENE 0.3 km/h   94 % 4.57 mm
14:35 19.9 °C 19.1 °C 1012.8 hPa ENE 0.2 km/h 1.9 km/h 95 % 4.57 mm
14:40 19.9 °C 19.1 °C 1012.8 hPa Calm   1.9 km/h 95 % 4.57 mm
14:45 20 °C 19.2 °C 1012.4 hPa Calm     95 % 4.57 mm
14:50 20.1 °C 19.2 °C 1012.4 hPa Calm     95 % 4.32 mm
14:55 20.1 °C 19.2 °C 1012.8 hPa Calm     95 % 4.06 mm
15:00 20.1 °C 19.4 °C 1012.8 hPa Calm     96 % 4.06 mm
15:05 20.2 °C 19.5 °C 1012.4 hPa Calm     96 % 3.56 mm
15:10 20.3 °C 19.6 °C 1012.4 hPa Calm   1.9 km/h 96 % 3.05 mm
15:16 20.3 °C 19.7 °C 1012.4 hPa Calm     96 % 0 mm
15:21 20.3 °C 19.7 °C 1012.8 hPa Calm   1.6 km/h 96 % 0 mm
15:26 20.4 °C 19.8 °C 1012.8 hPa Calm     96 % 0 mm
15:36 20.6 °C 20.1 °C 1012.4 hPa Calm   3.2 km/h 97 % 0 mm
15:41 20.7 °C 20.2 °C 1012.4 hPa Calm     97 % 0 mm
15:46 20.8 °C 20.3 °C 1012.4 hPa Calm   1.6 km/h 97 % 0 mm
15:51 20.9 °C 20.4 °C 1012.4 hPa Calm   1.6 km/h 97 % 0 mm
15:56 21.1 °C 20.6 °C 1012.4 hPa Calm   1.6 km/h 97 % 2.54 mm
16:01 21.2 °C 20.7 °C 1012.1 hPa SSE 4.5 km/h 8 km/h 97 % 2.29 mm
16:06 21.3 °C 20.8 °C 1012.1 hPa SSE 0.6 km/h 3.7 km/h 97 % 2.29 mm
16:11 21.4 °C 21.1 °C 1012.1 hPa SE 1.3 km/h 9.3 km/h 98 % 2.54 mm
16:16 21.6 °C 21.1 °C 1012.1 hPa SE 3.1 km/h 5.6 km/h 97 % 2.54 mm
16:21 21.7 °C 21.4 °C 1012.1 hPa SE 0.2 km/h 1.9 km/h 98 % 2.29 mm
16:26 21.8 °C 21.5 °C 1012.1 hPa SE 0.6 km/h 3.7 km/h 98 % 2.29 mm
16:28 21.9 °C 21.4 °C 1012.1 hPa SE 1.6 km/h 3.7 km/h 97 % 2.29 mm
16:33 21.9 °C 21.4 °C 1011.7 hPa SE 6.4 km/h 11.1 km/h 97 % 2.03 mm
16:38 21.9 °C 21.4 °C 1012.1 hPa SE 5.1 km/h 14.8 km/h 97 % 2.03 mm
16:43 22.1 °C 21.6 °C 1011.7 hPa SSE 1 km/h 7.4 km/h 97 % 1.78 mm
16:48 22.2 °C 21.7 °C 1011.7 hPa SSE 0.8 km/h 3.7 km/h 97 % 1.78 mm
16:53 22.3 °C 21.8 °C 1011.7 hPa Calm   1.9 km/h 97 % 1.52 mm
16:58 22.4 °C 21.9 °C 1011.7 hPa West 1.4 km/h 6.4 km/h 97 % 1.27 mm
16:59 22.4 °C 21.9 °C 1011.7 hPa Calm   5.6 km/h 97 % 1.27 mm
17:04 22.4 °C 21.9 °C 1011.7 hPa South 1.3 km/h 5.6 km/h 97 % 1.02 mm
17:09 22.4 °C 21.8 °C 1011.7 hPa SE 1.1 km/h 3.7 km/h 96 % 0.76 mm
17:14 22.4 °C 21.7 °C 1011.7 hPa Calm   1.9 km/h 96 % 0.76 mm
17:19 22.4 °C 21.6 °C 1011.7 hPa South 0.6 km/h 5.6 km/h 95 % 0.51 mm
17:24 22.5 °C 21.8 °C 1011.7 hPa Calm   5.6 km/h 96 % 0.25 mm
17:29 22.6 °C 21.9 °C 1011.4 hPa West 0.3 km/h 1.9 km/h 96 % 0.25 mm
17:34 22.5 °C 21.5 °C 1011.4 hPa SE 1.8 km/h 5.6 km/h 94 % 0.25 mm
17:40 22.4 °C 21.4 °C 1011.4 hPa SE 0.8 km/h 5.6 km/h 94 % 0 mm
17:44 22.4 °C 21.4 °C 1011.4 hPa SSE 0.8 km/h 1.9 km/h 94 % 0 mm
17:50 22.4 °C 21.4 °C 1011.4 hPa SSE 0.8 km/h 1.9 km/h 94 % 0 mm
17:55 22.4 °C 21.4 °C 1011.4 hPa ENE 0.6 km/h 3.7 km/h 94 % 0 mm
18:00 22.3 °C 21.2 °C 1011.7 hPa SE 1.1 km/h 6.4 km/h 93 % 0 mm
18:01 22.3 °C 21.1 °C 1011.7 hPa SE 0.2 km/h 5.6 km/h 93 % 0 mm
18:06 22.2 °C 21.1 °C 1011.7 hPa SSE 0.3 km/h 1.6 km/h 93 % 0 mm
18:11 22.2 °C 21.1 °C 1011.7 hPa NW 0.6 km/h 1.9 km/h 93 % 0 mm
18:16 22.2 °C 21.1 °C 1011.7 hPa SSE 0.5 km/h 1.9 km/h 93 % 0 mm
18:21 22.2 °C 21.2 °C 1011.7 hPa NNW 0.2 km/h 1.9 km/h 94 % 0 mm
18:26 22.1 °C 20.9 °C 1011.7 hPa WNW 0.2 km/h 5.6 km/h 93 % 0 mm
18:31 22.1 °C 21.1 °C 1011.7 hPa ESE 1.9 km/h 7.4 km/h 94 % 0 mm
18:36 22 °C 20.8 °C 1011.7 hPa SE 0.6 km/h 4.8 km/h 93 % 0 mm
18:41 21.9 °C 20.7 °C 1011.7 hPa Calm     93 % 0 mm
18:46 21.9 °C 20.7 °C 1011.7 hPa West 0.3 km/h 3.7 km/h 93 % 0 mm
18:51 21.8 °C 20.7 °C 1011.7 hPa Calm   1.9 km/h 93 % 0 mm
18:56 21.8 °C 20.8 °C 1011.7 hPa West 0.2 km/h 1.9 km/h 94 % 0 mm
19:01 21.8 °C 20.8 °C 1011.7 hPa Calm     94 % 0 mm
19:06 21.8 °C 20.8 °C 1011.7 hPa SSE 2.1 km/h 5.6 km/h 94 % 0 mm
19:11 21.7 °C 20.7 °C 1011.7 hPa SE 0.2 km/h 1.9 km/h 94 % 0 mm
19:16 21.6 °C 20.6 °C 1012.1 hPa SE 0.2 km/h 1.9 km/h 94 % 0 mm
19:22 21.6 °C 20.6 °C 1012.1 hPa Calm   3.7 km/h 94 % 0 mm
19:27 21.5 °C 20.5 °C 1012.1 hPa SSE 0.5 km/h 5.6 km/h 94 % 0 mm
19:32 21.4 °C 20.4 °C 1012.1 hPa Calm     94 % 0 mm
19:37 21.4 °C 20.4 °C 1012.1 hPa Calm   1.9 km/h 94 % 0 mm
19:42 21.4 °C 20.4 °C 1012.1 hPa SSE 0.8 km/h 5.6 km/h 94 % 0 mm
19:47 21.3 °C 20.3 °C 1012.1 hPa SSE 0.8 km/h 1.9 km/h 94 % 0 mm
19:52 21.3 °C 20.4 °C 1012.1 hPa SE 2.3 km/h 7.4 km/h 95 % 0 mm
19:57 21.2 °C 20.4 °C 1012.1 hPa Calm   3.7 km/h 95 % 0 mm
20:02 21.2 °C 20.4 °C 1012.1 hPa Calm   3.7 km/h 95 % 0 mm
20:07 21.2 °C 20.3 °C 1012.1 hPa Calm   5.6 km/h 95 % 0 mm
20:12 21.2 °C 20.3 °C 1012.1 hPa SSE 2.6 km/h 5.6 km/h 95 % 0 mm
20:17 21.2 °C 20.3 °C 1012.1 hPa SE 0.2 km/h 1.9 km/h 95 % 0 mm
20:22 21.1 °C 20.3 °C 1012.1 hPa SE 1.3 km/h 8 km/h 95 % 0 mm
20:27 21.1 °C 20.3 °C 1012.1 hPa SE 1 km/h 3.7 km/h 95 % 0 mm
20:32 21.1 °C 20.2 °C 1012.1 hPa Calm   1.9 km/h 95 % 0 mm
20:37 21.1 °C 20.2 °C 1012.1 hPa Calm   1.9 km/h 95 % 0 mm
20:42 21.1 °C 20.4 °C 1012.1 hPa SE 0.2 km/h 3.2 km/h 96 % 0 mm
20:47 21 °C 20.3 °C 1012.1 hPa Calm     96 % 0 mm
20:52 21 °C 20.3 °C 1012.1 hPa Calm     96 % 0 mm
20:57 20.9 °C 20.3 °C 1012.1 hPa SE 0.8 km/h 3.2 km/h 96 % 0 mm
21:02 20.9 °C 20.3 °C 1012.1 hPa Calm     96 % 0 mm
21:03 20.9 °C 20.3 °C 1012.1 hPa Calm     96 % 0 mm
21:08 20.9 °C 20.2 °C 1012.1 hPa Calm     96 % 0 mm
21:13 20.9 °C 20.2 °C 1012.1 hPa Calm     96 % 0 mm
21:18 20.8 °C 20.2 °C 1012.1 hPa SE 1.1 km/h 3.7 km/h 96 % 0 mm
21:23 20.8 °C 20.2 °C 1012.1 hPa Calm     96 % 0 mm
21:28 20.8 °C 20.2 °C 1012.1 hPa Calm     96 % 0 mm
21:33 20.8 °C 20.2 °C 1012.1 hPa Calm     96 % 0 mm
21:38 20.8 °C 20.2 °C 1012.1 hPa Calm   1.9 km/h 96 % 0 mm
21:43 20.8 °C 20.1 °C 1012.1 hPa Calm   1.9 km/h 96 % 0 mm
21:48 20.8 °C 20.1 °C 1012.4 hPa Calm     96 % 0 mm
21:49 20.8 °C 20.1 °C 1012.1 hPa Calm     96 % 0 mm
21:55 20.8 °C 20.1 °C 1012.4 hPa Calm     96 % 0 mm
22:00 20.7 °C 20.1 °C 1012.4 hPa SSE 1.1 km/h 3.7 km/h 96 % 0 mm
22:05 20.7 °C 20.1 °C 1012.1 hPa SE 1.3 km/h 5.6 km/h 96 % 0 mm
22:10 20.7 °C 20 °C 1012.4 hPa Calm     96 % 0 mm
22:15 20.7 °C 20 °C 1012.4 hPa Calm     96 % 0 mm
22:20 20.6 °C 19.9 °C 1012.4 hPa Calm     96 % 0 mm
22:25 20.6 °C 20.1 °C 1012.4 hPa Calm     97 % 0 mm
22:30 20.6 °C 20.1 °C 1012.4 hPa Calm   1.9 km/h 97 % 0 mm
22:35 20.6 °C 20.1 °C 1012.4 hPa SE 0.6 km/h 5.6 km/h 97 % 0 mm
22:40 20.6 °C 20.1 °C 1012.4 hPa SE 0.6 km/h 1.9 km/h 97 % 0 mm
22:45 20.6 °C 20.1 °C 1012.4 hPa Calm   3.7 km/h 97 % 0 mm
22:50 20.6 °C 20.1 °C 1012.4 hPa SE 0.8 km/h 5.6 km/h 97 % 0 mm
22:55 20.5 °C 20 °C 1012.4 hPa WSW 1.6 km/h 3.7 km/h 97 % 0 mm
23:00 20.5 °C 20 °C 1012.1 hPa SSE 0.2 km/h 3.2 km/h 97 % 0 mm
23:05 20.5 °C 20 °C 1012.4 hPa SSE 1.8 km/h 5.6 km/h 97 % 0 mm
23:10 20.5 °C 20 °C 1012.1 hPa Calm     97 % 0 mm
23:15 20.5 °C 20 °C 1012.1 hPa Calm   1.9 km/h 97 % 0 mm
23:21 20.5 °C 20 °C 1012.1 hPa Calm   1.6 km/h 97 % 0 mm
23:26 20.5 °C 20 °C 1012.1 hPa SSE 1.6 km/h 6.4 km/h 97 % 0 mm
23:31 20.5 °C 20 °C 1012.4 hPa Calm   6.4 km/h 97 % 0 mm
23:36 20.4 °C 20 °C 1012.4 hPa Calm   8 km/h 97 % 0 mm
23:41 20.4 °C 19.9 °C 1012.1 hPa Calm   3.2 km/h 97 % 0 mm
23:46 20.4 °C 19.9 °C 1012.1 hPa Calm   1.9 km/h 97 % 0 mm
23:51 20.4 °C 19.9 °C 1012.1 hPa SE 1.6 km/h 6.4 km/h 97 % 0 mm
23:56 20.4 °C 19.9 °C 1012.1 hPa Calm   1.6 km/h 97 % 0 mm
Crab Meadow Weather
Compliments of Weather Underground - 3 mb

Script developed by  Jim McMurry - jmcmurry@mwt.net Adapted for the template by  Wim van der Kuil - Leuven-Template.eu

Weather Terms: Enhanced Fujita Scale or EF-Scale - A scale of wind damage intensity in which wind speeds are inferred from analysis of wind damage. All tornadoes and most other windstorms are assigned a numerical rating from this scale according to the most intense damage caused by the storm. EF0 (weak) 6585 mph, light damage EF1 (weak) 86110 mph, moderate damage EF2 (strong) 111135 mph, considerable damage EF3 (strong) 136165 mph, severe damage EF4 (violent) 166200 mph, devastating damage EF5 (violent) >200 mph, incredible damage.